createdAt,value
2023-03-29T00:00:25.009Z,0.00
2023-03-29T00:01:35.349Z,0.00
2023-03-29T00:02:26.168Z,0.00
2023-03-29T00:03:25.148Z,0.00
2023-03-29T00:04:25.025Z,0.00
2023-03-29T00:05:25.488Z,0.00
2023-03-29T00:06:24.982Z,0.00
2023-03-29T00:07:24.941Z,0.00
2023-03-29T00:08:24.951Z,0.00
2023-03-29T00:09:24.967Z,0.00
2023-03-29T00:10:24.909Z,0.00
2023-03-29T00:11:24.895Z,0.00
2023-03-29T00:12:24.912Z,0.00
2023-03-29T00:13:24.982Z,0.00
2023-03-29T00:14:24.866Z,0.00
2023-03-29T00:15:24.834Z,0.00
2023-03-29T00:16:24.889Z,0.00
2023-03-29T00:17:24.828Z,0.00
2023-03-29T00:18:24.810Z,0.00
2023-03-29T00:19:24.807Z,0.00
2023-03-29T00:20:24.873Z,0.00
2023-03-29T00:21:24.818Z,0.00
2023-03-29T00:22:24.753Z,0.00
2023-03-29T00:23:24.770Z,0.00
2023-03-29T00:24:24.816Z,0.00
2023-03-29T00:25:24.735Z,0.00
2023-03-29T00:26:24.777Z,0.00
2023-03-29T00:27:24.759Z,0.00
2023-03-29T00:28:24.973Z,0.00
2023-03-29T00:29:24.689Z,0.00
2023-03-29T00:30:24.804Z,0.00
2023-03-29T00:31:24.758Z,0.00
2023-03-29T00:32:24.721Z,0.00
2023-03-29T00:33:24.721Z,0.00
2023-03-29T00:34:24.706Z,0.00
2023-03-29T00:35:24.738Z,0.00
2023-03-29T00:36:24.661Z,0.00
2023-03-29T00:37:24.661Z,0.00
2023-03-29T00:38:24.698Z,0.00
2023-03-29T00:39:24.648Z,0.00
2023-03-29T00:40:24.613Z,0.00
2023-03-29T00:41:24.625Z,0.00
2023-03-29T00:42:24.668Z,0.00
2023-03-29T00:43:24.602Z,0.00
2023-03-29T00:44:24.564Z,0.00
2023-03-29T00:45:24.584Z,0.00
2023-03-29T00:46:24.570Z,0.00
2023-03-29T00:47:24.555Z,0.00
2023-03-29T00:48:24.599Z,0.00
2023-03-29T00:49:24.530Z,0.00
2023-03-29T00:50:24.539Z,0.00
2023-03-29T00:51:24.477Z,0.00
2023-03-29T00:52:24.480Z,0.00
2023-03-29T00:53:24.482Z,0.00
2023-03-29T00:54:24.531Z,0.00
2023-03-29T00:55:24.456Z,0.00
2023-03-29T00:56:24.512Z,0.00
2023-03-29T00:57:26.510Z,0.00
2023-03-29T00:58:24.550Z,0.00
2023-03-29T00:59:24.421Z,0.00
2023-03-29T01:00:24.385Z,0.00
2023-03-29T01:01:24.453Z,0.00
2023-03-29T01:02:24.475Z,0.00
2023-03-29T01:03:24.540Z,0.00
2023-03-29T01:04:24.378Z,0.00
2023-03-29T01:05:24.345Z,0.00
2023-03-29T01:06:24.321Z,0.00
2023-03-29T01:07:24.307Z,0.00
2023-03-29T01:08:24.324Z,0.00
2023-03-29T01:09:24.342Z,0.00
2023-03-29T01:10:24.306Z,0.00
2023-03-29T01:11:24.312Z,0.00
2023-03-29T01:12:24.318Z,0.00
2023-03-29T01:13:24.295Z,0.00
2023-03-29T01:14:24.352Z,0.00
2023-03-29T01:15:24.304Z,0.00
2023-03-29T01:16:24.309Z,0.00
2023-03-29T01:17:24.276Z,0.00
2023-03-29T01:18:24.213Z,0.00
2023-03-29T01:19:24.170Z,0.00
2023-03-29T01:20:24.257Z,0.00
2023-03-29T01:21:24.204Z,0.00
2023-03-29T01:22:24.178Z,0.00
2023-03-29T01:23:24.154Z,0.00
2023-03-29T01:24:24.189Z,0.00
2023-03-29T01:25:24.161Z,0.00
2023-03-29T01:26:24.212Z,0.00
2023-03-29T01:27:24.088Z,0.00
2023-03-29T01:28:24.093Z,0.00
2023-03-29T01:29:24.082Z,0.00
2023-03-29T01:30:24.089Z,0.00
2023-03-29T01:31:24.111Z,0.00
2023-03-29T01:32:24.112Z,0.00
2023-03-29T01:33:24.082Z,0.00
2023-03-29T01:34:24.128Z,0.00
2023-03-29T01:35:24.025Z,0.00
2023-03-29T01:36:24.104Z,0.00
2023-03-29T01:37:24.090Z,0.00
2023-03-29T01:38:24.018Z,0.00
2023-03-29T01:39:24.008Z,0.00
2023-03-29T01:40:24.032Z,0.00
2023-03-29T01:41:23.997Z,0.00
2023-03-29T01:42:23.939Z,0.00
2023-03-29T01:43:23.930Z,0.00
2023-03-29T01:44:23.920Z,0.00
2023-03-29T01:45:23.891Z,0.00
2023-03-29T01:46:23.927Z,0.00
2023-03-29T01:47:23.978Z,0.00
2023-03-29T01:48:23.850Z,0.00
2023-03-29T01:49:23.955Z,0.00
2023-03-29T01:50:23.861Z,0.00
2023-03-29T01:51:23.882Z,0.00
2023-03-29T01:52:23.847Z,0.00
2023-03-29T01:53:23.864Z,0.00
2023-03-29T01:54:23.871Z,0.00
2023-03-29T01:55:23.852Z,0.00
2023-03-29T01:56:23.803Z,0.00
2023-03-29T01:57:23.788Z,0.00
2023-03-29T01:58:23.740Z,0.00
2023-03-29T01:59:23.724Z,0.00
2023-03-29T02:00:23.706Z,0.00
2023-03-29T02:01:23.752Z,0.00
2023-03-29T02:02:23.757Z,0.00
2023-03-29T02:03:23.814Z,0.00
2023-03-29T02:04:23.671Z,0.00
2023-03-29T02:05:23.658Z,0.00
2023-03-29T02:06:23.731Z,0.00
2023-03-29T02:07:23.650Z,0.00
2023-03-29T02:08:23.627Z,0.00
2023-03-29T02:09:24.848Z,0.00
2023-03-29T02:10:23.634Z,0.00
2023-03-29T02:11:23.579Z,0.00
2023-03-29T02:12:23.584Z,0.00
2023-03-29T02:13:23.580Z,0.00
2023-03-29T02:14:23.582Z,0.00
2023-03-29T02:15:23.702Z,0.00
2023-03-29T02:16:23.575Z,0.00
2023-03-29T02:17:23.561Z,0.00
2023-03-29T02:18:23.628Z,0.00
2023-03-29T02:19:23.535Z,0.00
2023-03-29T02:20:23.590Z,0.00
2023-03-29T02:21:23.492Z,0.00
2023-03-29T02:22:23.597Z,0.00
2023-03-29T02:23:23.502Z,0.00
2023-03-29T02:24:23.464Z,0.00
2023-03-29T02:25:23.464Z,0.00
2023-03-29T02:26:23.438Z,0.00
2023-03-29T02:27:23.382Z,0.00
2023-03-29T02:28:23.441Z,0.00
2023-03-29T02:29:23.466Z,0.00
2023-03-29T02:30:23.434Z,0.00
2023-03-29T02:31:23.433Z,0.00
2023-03-29T02:32:23.478Z,0.00
2023-03-29T02:33:23.381Z,0.00
2023-03-29T02:34:23.365Z,0.00
2023-03-29T02:35:23.363Z,0.00
2023-03-29T02:36:23.373Z,0.00
2023-03-29T02:37:23.353Z,0.00
2023-03-29T02:38:23.312Z,0.00
2023-03-29T02:39:23.310Z,0.00
2023-03-29T02:40:23.351Z,0.00
2023-03-29T02:41:23.334Z,0.00
2023-03-29T02:42:23.280Z,0.00
2023-03-29T02:43:25.783Z,0.00
2023-03-29T02:44:23.258Z,0.00
2023-03-29T02:45:23.242Z,0.00
2023-03-29T02:46:23.283Z,0.00
2023-03-29T02:47:23.259Z,0.00
2023-03-29T02:48:23.268Z,0.00
2023-03-29T02:49:23.233Z,0.00
2023-03-29T02:50:23.279Z,0.00
2023-03-29T02:51:23.189Z,0.00
2023-03-29T02:52:23.184Z,0.00
2023-03-29T02:53:23.194Z,0.00
2023-03-29T02:54:23.174Z,0.00
2023-03-29T02:55:23.140Z,0.00
2023-03-29T02:56:23.111Z,0.00
2023-03-29T02:57:23.161Z,0.00
2023-03-29T02:58:23.165Z,0.00
2023-03-29T02:59:23.093Z,0.00
2023-03-29T03:00:23.121Z,0.00
2023-03-29T03:01:23.231Z,0.00
2023-03-29T03:02:23.113Z,0.00
2023-03-29T03:03:23.230Z,0.00
2023-03-29T03:04:23.091Z,0.00
2023-03-29T03:05:23.083Z,0.00
2023-03-29T03:06:23.047Z,0.00
2023-03-29T03:07:23.078Z,0.00
2023-03-29T03:08:23.057Z,0.00
2023-03-29T03:09:23.026Z,0.00
2023-03-29T03:10:23.077Z,0.00
2023-03-29T03:11:23.011Z,0.00
2023-03-29T03:12:22.998Z,0.00
2023-03-29T03:13:23.044Z,0.00
2023-03-29T03:14:22.991Z,0.00
2023-03-29T03:15:22.974Z,0.00
2023-03-29T03:16:23.006Z,0.00
2023-03-29T03:17:23.010Z,0.00
2023-03-29T03:18:22.919Z,0.00
2023-03-29T03:19:22.875Z,0.00
2023-03-29T03:20:22.854Z,0.00
2023-03-29T03:21:23.117Z,0.00
2023-03-29T03:22:22.878Z,0.00
2023-03-29T03:23:22.880Z,0.00
2023-03-29T03:24:22.915Z,0.00
2023-03-29T03:25:22.829Z,0.00
2023-03-29T03:26:22.811Z,0.00
2023-03-29T03:27:22.845Z,0.00
2023-03-29T03:28:22.789Z,0.00
2023-03-29T03:29:22.892Z,0.00
2023-03-29T03:30:22.814Z,0.00
2023-03-29T03:31:22.782Z,0.00
2023-03-29T03:32:22.853Z,0.00
2023-03-29T03:33:22.824Z,0.00
2023-03-29T03:34:22.823Z,0.00
2023-03-29T03:35:22.807Z,0.00
2023-03-29T03:36:22.713Z,0.00
2023-03-29T03:37:22.694Z,0.00
2023-03-29T03:38:22.713Z,0.00
2023-03-29T03:39:22.684Z,0.00
2023-03-29T03:40:22.684Z,0.00
2023-03-29T03:41:22.730Z,0.00
2023-03-29T03:42:22.650Z,0.00
2023-03-29T03:43:22.641Z,0.00
2023-03-29T03:44:22.810Z,0.00
2023-03-29T03:45:22.568Z,0.00
2023-03-29T03:46:22.608Z,0.00
2023-03-29T03:47:22.774Z,0.00
2023-03-29T03:48:22.541Z,0.00
2023-03-29T03:49:22.528Z,0.00
2023-03-29T03:50:22.541Z,0.00
2023-03-29T03:51:22.520Z,0.00
2023-03-29T03:52:22.597Z,0.00
2023-03-29T03:53:22.780Z,0.00
2023-03-29T03:54:22.536Z,0.00
2023-03-29T03:55:22.528Z,0.00
2023-03-29T03:56:22.470Z,0.00
2023-03-29T03:57:22.660Z,0.00
2023-03-29T03:58:22.511Z,0.00
2023-03-29T03:59:22.495Z,0.00
2023-03-29T04:00:22.420Z,0.00
2023-03-29T04:01:22.431Z,0.00
2023-03-29T04:02:22.492Z,0.00
2023-03-29T04:03:22.652Z,0.00
2023-03-29T04:04:22.428Z,0.00
2023-03-29T04:05:22.373Z,0.00
2023-03-29T04:06:22.380Z,0.00
2023-03-29T04:07:22.400Z,0.00
2023-03-29T04:08:22.359Z,0.00
2023-03-29T04:09:22.353Z,0.00
2023-03-29T04:10:22.519Z,0.00
2023-03-29T04:11:22.346Z,0.00
2023-03-29T04:12:22.329Z,0.00
2023-03-29T04:13:22.335Z,0.00
2023-03-29T04:14:22.266Z,0.00
2023-03-29T04:15:22.300Z,0.00
2023-03-29T04:16:22.315Z,0.00
2023-03-29T04:17:22.322Z,0.00
2023-03-29T04:18:22.300Z,0.00
2023-03-29T04:19:22.310Z,0.00
2023-03-29T04:20:22.363Z,0.00
2023-03-29T04:21:22.209Z,0.00
2023-03-29T04:22:22.294Z,0.00
2023-03-29T04:23:22.211Z,0.00
2023-03-29T04:24:22.156Z,0.00
2023-03-29T04:25:22.172Z,0.00
2023-03-29T04:26:22.127Z,0.00
2023-03-29T04:27:22.132Z,0.00
2023-03-29T04:28:22.135Z,0.00
2023-03-29T04:29:22.115Z,0.00
2023-03-29T04:30:22.327Z,0.00
2023-03-29T04:31:22.161Z,0.00
2023-03-29T04:32:22.185Z,0.00
2023-03-29T04:33:22.141Z,0.00
2023-03-29T04:34:22.081Z,0.00
2023-03-29T04:35:22.050Z,0.00
2023-03-29T04:36:22.068Z,0.00
2023-03-29T04:37:22.071Z,0.00
2023-03-29T04:38:22.072Z,0.00
2023-03-29T04:39:21.995Z,1.00
2023-03-29T04:40:21.983Z,1.00
2023-03-29T04:41:21.996Z,1.00
2023-03-29T04:42:21.986Z,1.00
2023-03-29T04:43:21.952Z,1.00
2023-03-29T04:44:22.069Z,2.00
2023-03-29T04:45:21.940Z,2.00
2023-03-29T04:46:21.904Z,2.00
2023-03-29T04:47:21.880Z,3.00
2023-03-29T04:48:21.886Z,3.00
2023-03-29T04:49:23.853Z,4.00
2023-03-29T04:50:21.902Z,7.00
2023-03-29T04:51:21.860Z,4.00
2023-03-29T04:52:23.932Z,3.00
2023-03-29T04:53:21.891Z,4.00
2023-03-29T04:54:21.870Z,6.00
2023-03-29T04:55:21.865Z,12.00
2023-03-29T04:56:21.801Z,12.00
2023-03-29T04:57:21.821Z,11.00
2023-03-29T04:58:24.395Z,14.00
2023-03-29T04:59:21.770Z,14.00
2023-03-29T05:00:21.758Z,15.00
2023-03-29T05:01:21.826Z,19.00
2023-03-29T05:02:21.824Z,25.00
2023-03-29T05:03:21.804Z,32.00
2023-03-29T05:04:21.715Z,34.00
2023-03-29T05:05:21.756Z,42.00
2023-03-29T05:06:21.697Z,46.00
2023-03-29T05:07:21.787Z,55.00
2023-03-29T05:08:21.698Z,67.00
2023-03-29T05:09:21.707Z,77.00
2023-03-29T05:10:21.657Z,109.00
2023-03-29T05:11:21.650Z,114.00
2023-03-29T05:12:21.604Z,112.00
2023-03-29T05:13:21.617Z,136.00
2023-03-29T05:14:21.629Z,144.00
2023-03-29T05:15:21.581Z,166.00
2023-03-29T05:16:21.580Z,182.00
2023-03-29T05:17:21.560Z,194.00
2023-03-29T05:18:21.605Z,239.00
2023-03-29T05:19:21.554Z,238.00
2023-03-29T05:20:21.497Z,217.00
2023-03-29T05:21:21.519Z,211.00
2023-03-29T05:22:21.535Z,224.00
2023-03-29T05:23:21.514Z,236.00
2023-03-29T05:24:21.475Z,243.00
2023-03-29T05:25:21.496Z,295.00
2023-03-29T05:26:21.524Z,249.00
2023-03-29T05:27:21.418Z,265.00
2023-03-29T05:28:21.443Z,345.00
2023-03-29T05:29:21.461Z,317.00
2023-03-29T05:30:21.464Z,311.00
2023-03-29T05:31:21.583Z,409.00
2023-03-29T05:32:21.413Z,408.00
2023-03-29T05:33:21.440Z,375.00
2023-03-29T05:34:21.450Z,409.00
2023-03-29T05:35:21.389Z,496.00
2023-03-29T05:36:21.345Z,535.00
2023-03-29T05:37:21.370Z,513.00
2023-03-29T05:38:21.421Z,503.00
2023-03-29T05:39:21.375Z,523.00
2023-03-29T05:40:21.369Z,543.00
2023-03-29T05:41:21.288Z,507.00
2023-03-29T05:42:21.254Z,498.00
2023-03-29T05:43:21.356Z,500.00
2023-03-29T05:44:21.350Z,653.00
2023-03-29T05:45:21.289Z,698.00
2023-03-29T05:46:21.288Z,588.00
2023-03-29T05:47:21.255Z,622.00
2023-03-29T05:48:21.298Z,715.00
2023-03-29T05:49:21.233Z,657.00
2023-03-29T05:50:21.189Z,575.00
2023-03-29T05:51:21.188Z,579.00
2023-03-29T05:52:21.179Z,567.00
2023-03-29T05:53:21.227Z,592.00
2023-03-29T05:54:21.230Z,780.00
2023-03-29T05:55:21.210Z,889.00
2023-03-29T05:56:21.187Z,869.00
2023-03-29T05:57:21.257Z,882.00
2023-03-29T05:58:21.092Z,874.00
2023-03-29T05:59:21.147Z,908.00
2023-03-29T06:00:21.052Z,938.00
2023-03-29T06:01:21.061Z,1037.00
2023-03-29T06:02:21.109Z,1127.00
2023-03-29T06:03:21.981Z,1186.00
2023-03-29T06:04:21.118Z,1214.00
2023-03-29T06:05:21.054Z,1221.00
2023-03-29T06:06:20.980Z,1255.00
2023-03-29T06:07:20.988Z,1303.00
2023-03-29T06:08:21.019Z,1363.00
2023-03-29T06:09:20.959Z,1369.00
2023-03-29T06:10:20.941Z,1173.00
2023-03-29T06:11:21.058Z,1207.00
2023-03-29T06:12:20.957Z,1428.00
2023-03-29T06:13:20.962Z,1605.00
2023-03-29T06:14:20.902Z,1605.00
2023-03-29T06:15:20.874Z,1525.00
2023-03-29T06:16:20.929Z,1798.00
2023-03-29T06:17:20.995Z,2029.00
2023-03-29T06:18:20.857Z,2215.00
2023-03-29T06:19:20.966Z,1915.00
2023-03-29T06:20:20.861Z,1976.00
2023-03-29T06:21:20.874Z,2252.00
2023-03-29T06:22:20.831Z,2331.00
2023-03-29T06:23:20.862Z,2229.00
2023-03-29T06:24:20.811Z,2540.00
2023-03-29T06:25:20.793Z,3078.00
2023-03-29T06:26:20.785Z,2994.00
2023-03-29T06:27:20.780Z,2918.00
2023-03-29T06:28:20.858Z,2741.00
2023-03-29T06:29:21.390Z,2606.00
2023-03-29T06:30:20.729Z,2517.00
2023-03-29T06:31:20.935Z,2829.00
2023-03-29T06:32:20.745Z,3220.00
2023-03-29T06:33:20.788Z,2929.00
2023-03-29T06:34:20.765Z,2801.00
2023-03-29T06:35:20.794Z,2728.00
2023-03-29T06:36:20.669Z,2925.00
2023-03-29T06:37:20.666Z,3008.00
2023-03-29T06:38:20.670Z,3162.00
2023-03-29T06:39:20.725Z,3549.00
2023-03-29T06:40:20.650Z,3869.00
2023-03-29T06:41:20.648Z,3993.00
2023-03-29T06:42:21.842Z,4097.00
2023-03-29T06:43:20.610Z,4115.00
2023-03-29T06:44:20.633Z,4105.00
2023-03-29T06:45:23.212Z,4313.00
2023-03-29T06:46:20.582Z,4305.00
2023-03-29T06:47:20.684Z,3958.00
2023-03-29T06:48:20.560Z,4158.00
2023-03-29T06:49:20.553Z,4560.00
2023-03-29T06:50:20.721Z,5325.00
2023-03-29T06:51:22.729Z,4915.00
2023-03-29T06:52:20.517Z,4592.00
2023-03-29T06:53:20.870Z,4844.00
2023-03-29T06:54:20.543Z,4973.00
2023-03-29T06:55:20.467Z,5204.00
2023-03-29T06:56:20.529Z,5316.00
2023-03-29T06:57:20.507Z,4906.00
2023-03-29T06:58:20.498Z,4675.00
2023-03-29T06:59:20.493Z,4866.00
2023-03-29T07:00:20.535Z,4730.00
2023-03-29T07:01:20.445Z,4519.00
2023-03-29T07:02:20.461Z,4331.00
2023-03-29T07:03:20.452Z,4036.00
2023-03-29T07:04:20.394Z,3905.00
2023-03-29T07:05:20.421Z,3872.00
2023-03-29T07:06:20.378Z,3959.00
2023-03-29T07:07:20.714Z,3842.00
2023-03-29T07:08:20.327Z,3889.00
2023-03-29T07:09:20.329Z,3928.00
2023-03-29T07:10:20.304Z,3739.00
2023-03-29T07:11:20.342Z,3604.00
2023-03-29T07:12:20.300Z,3578.00
2023-03-29T07:13:20.300Z,3900.00
2023-03-29T07:14:20.379Z,4579.00
2023-03-29T07:15:20.285Z,5044.00
2023-03-29T07:16:20.706Z,5134.00
2023-03-29T07:17:20.286Z,5208.00
2023-03-29T07:18:20.248Z,5186.00
2023-03-29T07:19:20.269Z,4742.00
2023-03-29T07:20:20.186Z,4418.00
2023-03-29T07:21:20.224Z,4447.00
2023-03-29T07:22:20.196Z,4387.00
2023-03-29T07:23:20.180Z,4550.00
2023-03-29T07:24:20.222Z,4636.00
2023-03-29T07:25:20.212Z,4576.00
2023-03-29T07:26:28.828Z,4168.00
2023-03-29T07:27:21.191Z,3862.00
2023-03-29T07:28:20.126Z,3826.00
2023-03-29T07:29:20.350Z,4075.00
2023-03-29T07:30:20.126Z,4214.00
2023-03-29T07:31:20.103Z,4358.00
2023-03-29T07:32:20.118Z,4533.00
2023-03-29T07:33:20.165Z,4526.00
2023-03-29T07:34:20.099Z,4590.00
2023-03-29T07:35:20.083Z,4864.00
2023-03-29T07:36:20.102Z,5211.00
2023-03-29T07:37:20.041Z,5085.00
2023-03-29T07:38:20.021Z,5322.00
2023-03-29T07:39:19.993Z,5673.00
2023-03-29T07:40:20.038Z,5765.00
2023-03-29T07:41:20.034Z,6501.00
2023-03-29T07:42:19.945Z,7107.00
2023-03-29T07:43:20.122Z,6365.00
2023-03-29T07:44:19.967Z,6947.00
2023-03-29T07:45:19.982Z,7262.00
2023-03-29T07:46:20.927Z,6800.00
2023-03-29T07:47:19.962Z,7722.00
2023-03-29T07:48:19.943Z,8129.00
2023-03-29T07:49:21.684Z,7926.00
2023-03-29T07:50:19.866Z,8540.00
2023-03-29T07:51:19.941Z,8929.00
2023-03-29T07:52:19.883Z,8717.00
2023-03-29T07:53:19.835Z,8721.00
2023-03-29T07:54:19.843Z,7159.00
2023-03-29T07:55:19.833Z,5832.00
2023-03-29T07:56:19.832Z,7788.00
2023-03-29T07:57:19.838Z,9165.00
2023-03-29T07:58:19.789Z,8182.00
2023-03-29T07:59:19.832Z,8553.00
2023-03-29T08:00:19.790Z,6766.00
2023-03-29T08:01:20.217Z,7244.00
2023-03-29T08:02:19.741Z,9886.00
2023-03-29T08:03:19.842Z,10746.00
2023-03-29T08:04:19.862Z,10813.00
2023-03-29T08:05:29.123Z,11250.00
2023-03-29T08:06:20.801Z,11735.00
2023-03-29T08:07:19.700Z,13256.00
2023-03-29T08:08:19.686Z,13657.00
2023-03-29T08:09:19.650Z,14717.00
2023-03-29T08:10:19.659Z,12547.00
2023-03-29T08:11:19.645Z,11046.00
2023-03-29T08:12:19.678Z,9636.00
2023-03-29T08:13:19.658Z,9043.00
2023-03-29T08:14:19.646Z,9202.00
2023-03-29T08:15:19.597Z,10900.00
2023-03-29T08:16:19.647Z,12295.00
2023-03-29T08:17:19.583Z,19802.00
2023-03-29T08:18:19.564Z,16556.00
2023-03-29T08:19:19.602Z,20749.00
2023-03-29T08:20:19.556Z,17349.00
2023-03-29T08:21:19.555Z,16343.00
2023-03-29T08:22:19.564Z,15522.00
2023-03-29T08:23:19.609Z,13794.00
2023-03-29T08:24:20.980Z,15554.00
2023-03-29T08:25:19.552Z,15767.00
2023-03-29T08:26:19.521Z,13943.00
2023-03-29T08:27:19.519Z,13224.00
2023-03-29T08:28:19.512Z,10966.00
2023-03-29T08:29:19.523Z,9336.00
2023-03-29T08:30:20.082Z,12148.00
2023-03-29T08:31:19.499Z,12272.00
2023-03-29T08:32:19.393Z,10079.00
2023-03-29T08:33:19.541Z,10327.00
2023-03-29T08:34:19.407Z,9815.00
2023-03-29T08:35:19.406Z,9360.00
2023-03-29T08:36:19.449Z,11778.00
2023-03-29T08:37:19.342Z,14596.00
2023-03-29T08:38:19.320Z,14845.00
2023-03-29T08:39:19.707Z,14841.00
2023-03-29T08:40:19.340Z,14079.00
2023-03-29T08:41:19.350Z,11876.00
2023-03-29T08:42:19.301Z,11858.00
2023-03-29T08:43:19.333Z,10739.00
2023-03-29T08:44:19.297Z,10476.00
2023-03-29T08:45:19.270Z,10680.00
2023-03-29T08:46:19.363Z,12300.00
2023-03-29T08:47:19.298Z,11708.00
2023-03-29T08:48:19.251Z,10391.00
2023-03-29T08:49:19.199Z,8139.00
2023-03-29T08:50:19.271Z,8676.00
2023-03-29T08:51:19.223Z,9639.00
2023-03-29T08:52:19.221Z,7762.00
2023-03-29T08:53:19.156Z,8314.00
2023-03-29T08:54:19.183Z,8474.00
2023-03-29T08:55:19.162Z,8404.00
2023-03-29T08:56:19.137Z,8772.00
2023-03-29T08:57:19.166Z,9071.00
2023-03-29T08:58:19.121Z,10090.00
2023-03-29T08:59:19.089Z,10828.00
2023-03-29T09:00:19.137Z,10618.00
2023-03-29T09:01:19.114Z,10931.00
2023-03-29T09:02:19.213Z,12103.00
2023-03-29T09:03:19.141Z,13238.00
2023-03-29T09:04:19.052Z,12947.00
2023-03-29T09:05:19.045Z,11304.00
2023-03-29T09:06:19.033Z,11781.00
2023-03-29T09:07:19.062Z,12986.00
2023-03-29T09:08:19.015Z,12057.00
2023-03-29T09:09:19.076Z,10123.00
2023-03-29T09:10:19.058Z,8735.00
2023-03-29T09:11:18.981Z,8791.00
2023-03-29T09:12:18.964Z,9361.00
2023-03-29T09:13:19.105Z,11582.00
2023-03-29T09:14:18.927Z,13924.00
2023-03-29T09:15:18.928Z,15772.00
2023-03-29T09:16:18.934Z,15547.00
2023-03-29T09:17:18.982Z,15598.00
2023-03-29T09:18:18.987Z,16244.00
2023-03-29T09:19:18.883Z,14997.00
2023-03-29T09:20:18.948Z,13381.00
2023-03-29T09:21:18.876Z,11860.00
2023-03-29T09:22:18.914Z,9505.00
2023-03-29T09:23:18.855Z,7808.00
2023-03-29T09:24:18.820Z,10264.00
2023-03-29T09:25:18.807Z,13458.00
2023-03-29T09:26:18.867Z,12629.00
2023-03-29T09:27:18.801Z,12738.00
2023-03-29T09:28:18.812Z,12591.00
2023-03-29T09:29:18.747Z,12324.00
2023-03-29T09:30:18.856Z,14327.00
2023-03-29T09:31:18.855Z,16069.00
2023-03-29T09:32:18.790Z,17132.00
2023-03-29T09:33:18.712Z,18560.00
2023-03-29T09:34:18.713Z,15144.00
2023-03-29T09:35:18.890Z,13309.00
2023-03-29T09:36:18.696Z,13275.00
2023-03-29T09:37:18.665Z,14598.00
2023-03-29T09:38:18.668Z,15797.00
2023-03-29T09:39:18.647Z,13588.00
2023-03-29T09:40:18.617Z,14815.00
2023-03-29T09:41:18.632Z,15281.00
2023-03-29T09:42:18.642Z,15045.00
2023-03-29T09:43:18.625Z,14974.00
2023-03-29T09:44:30.324Z,16526.00
2023-03-29T09:45:19.638Z,12996.00
2023-03-29T09:46:18.602Z,12685.00
2023-03-29T09:47:18.582Z,11428.00
2023-03-29T09:48:18.563Z,10018.00
2023-03-29T09:49:18.561Z,8766.00
2023-03-29T09:50:30.213Z,9727.00
2023-03-29T09:51:19.497Z,9793.00
2023-03-29T09:52:18.516Z,8261.00
2023-03-29T09:53:18.518Z,7171.00
2023-03-29T09:54:18.533Z,8629.00
2023-03-29T09:55:18.468Z,9107.00
2023-03-29T09:56:18.495Z,7904.00
2023-03-29T09:57:18.466Z,6065.00
2023-03-29T09:58:18.465Z,5590.00
2023-03-29T09:59:18.442Z,7450.00
2023-03-29T10:00:18.431Z,7977.00
2023-03-29T10:01:18.486Z,10235.00
2023-03-29T10:02:18.386Z,12084.00
2023-03-29T10:03:18.393Z,12073.00
2023-03-29T10:04:18.436Z,12774.00
2023-03-29T10:05:18.383Z,11120.00
2023-03-29T10:06:18.363Z,9273.00
2023-03-29T10:07:18.340Z,13119.00
2023-03-29T10:08:19.724Z,13804.00
2023-03-29T10:09:18.303Z,10549.00
2023-03-29T10:10:18.446Z,7548.00
2023-03-29T10:11:18.322Z,5793.00
2023-03-29T10:12:18.391Z,4548.00
2023-03-29T10:13:18.336Z,3854.00
2023-03-29T10:14:18.318Z,5017.00
2023-03-29T10:15:29.268Z,7029.00
2023-03-29T10:16:19.337Z,9014.00
2023-03-29T10:17:18.257Z,7547.00
2023-03-29T10:18:18.287Z,5847.00
2023-03-29T10:19:18.234Z,5425.00
2023-03-29T10:20:18.220Z,6361.00
2023-03-29T10:21:18.212Z,7717.00
2023-03-29T10:22:18.211Z,7349.00
2023-03-29T10:23:18.210Z,6835.00
2023-03-29T10:24:18.149Z,7312.00
2023-03-29T10:25:18.136Z,8961.00
2023-03-29T10:26:18.127Z,12907.00
2023-03-29T10:27:18.104Z,13373.00
2023-03-29T10:28:18.134Z,9995.00
2023-03-29T10:29:18.078Z,7745.00
2023-03-29T10:30:18.070Z,7744.00
2023-03-29T10:31:18.130Z,7096.00
2023-03-29T10:32:18.040Z,7373.00
2023-03-29T10:33:18.075Z,7870.00
2023-03-29T10:34:18.014Z,5708.00
2023-03-29T10:35:18.009Z,7292.00
2023-03-29T10:36:18.121Z,8355.00
2023-03-29T10:37:17.987Z,7400.00
2023-03-29T10:38:18.046Z,6407.00
2023-03-29T10:39:18.003Z,10643.00
2023-03-29T10:40:17.953Z,13518.00
2023-03-29T10:41:17.959Z,11524.00
2023-03-29T10:42:17.936Z,9930.00
2023-03-29T10:43:17.939Z,8432.00
2023-03-29T10:44:17.921Z,8924.00
2023-03-29T10:45:17.899Z,8661.00
2023-03-29T10:46:17.943Z,9019.00
2023-03-29T10:47:17.882Z,9492.00
2023-03-29T10:48:17.900Z,10546.00
2023-03-29T10:49:17.852Z,10173.00
2023-03-29T10:50:17.846Z,8561.00
2023-03-29T10:51:17.887Z,5699.00
2023-03-29T10:52:17.829Z,7546.00
2023-03-29T10:53:17.833Z,9889.00
2023-03-29T10:54:17.838Z,7929.00
2023-03-29T10:55:17.897Z,5871.00
2023-03-29T10:56:17.816Z,3826.00
2023-03-29T10:57:17.827Z,4972.00
2023-03-29T10:58:17.785Z,7779.00
2023-03-29T10:59:17.741Z,5050.00
2023-03-29T11:00:17.760Z,6867.00
2023-03-29T11:01:17.811Z,9845.00
2023-03-29T11:02:17.731Z,13559.00
2023-03-29T11:03:20.251Z,13818.00
2023-03-29T11:04:17.762Z,9990.00
2023-03-29T11:05:17.744Z,11694.00
2023-03-29T11:06:17.706Z,13352.00
2023-03-29T11:07:17.685Z,11202.00
2023-03-29T11:08:17.729Z,10554.00
2023-03-29T11:09:17.620Z,10830.00
2023-03-29T11:10:17.619Z,13713.00
2023-03-29T11:11:17.618Z,16487.00
2023-03-29T11:12:17.615Z,16503.00
2023-03-29T11:13:17.702Z,17994.00
2023-03-29T11:14:17.589Z,19354.00
2023-03-29T11:15:17.584Z,19181.00
2023-03-29T11:16:17.627Z,28524.00
2023-03-29T11:17:17.763Z,22103.00
2023-03-29T11:18:17.605Z,24543.00
2023-03-29T11:19:17.548Z,19927.00
2023-03-29T11:20:17.602Z,17000.00
2023-03-29T11:21:17.540Z,20319.00
2023-03-29T11:22:17.606Z,17958.00
2023-03-29T11:23:17.499Z,12501.00
2023-03-29T11:24:17.519Z,15769.00
2023-03-29T11:25:17.513Z,16414.00
2023-03-29T11:26:17.484Z,13558.00
2023-03-29T11:27:17.470Z,18183.00
2023-03-29T11:28:17.477Z,20215.00
2023-03-29T11:29:17.451Z,22417.00
2023-03-29T11:30:17.409Z,24739.00
2023-03-29T11:31:17.412Z,20677.00
2023-03-29T11:32:17.429Z,20419.00
2023-03-29T11:33:17.409Z,16427.00
2023-03-29T11:34:17.435Z,17691.00
2023-03-29T11:35:17.342Z,18635.00
2023-03-29T11:36:17.398Z,14491.00
2023-03-29T11:37:17.352Z,18065.00
2023-03-29T11:38:17.321Z,23750.00
2023-03-29T11:39:17.311Z,20800.00
2023-03-29T11:40:17.321Z,18054.00
2023-03-29T11:41:17.275Z,33319.00
2023-03-29T11:42:17.268Z,25278.00
2023-03-29T11:43:17.265Z,20047.00
2023-03-29T11:44:17.268Z,19849.00
2023-03-29T11:45:17.222Z,21327.00
2023-03-29T11:46:17.305Z,21117.00
2023-03-29T11:47:17.224Z,20652.00
2023-03-29T11:48:17.271Z,20991.00
2023-03-29T11:49:17.226Z,19383.00
2023-03-29T11:50:17.225Z,17953.00
2023-03-29T11:51:17.211Z,19533.00
2023-03-29T11:52:17.163Z,23158.00
2023-03-29T11:53:17.162Z,20543.00
2023-03-29T11:54:17.142Z,16608.00
2023-03-29T11:55:17.142Z,16492.00
2023-03-29T11:56:17.161Z,15145.00
2023-03-29T11:57:17.164Z,16297.00
2023-03-29T11:58:17.088Z,20109.00
2023-03-29T11:59:17.132Z,16477.00
2023-03-29T12:00:17.087Z,13890.00
2023-03-29T12:01:17.097Z,14980.00
2023-03-29T12:02:17.106Z,15923.00
2023-03-29T12:03:17.116Z,14063.00
2023-03-29T12:04:17.092Z,15580.00
2023-03-29T12:05:17.033Z,18161.00
2023-03-29T12:06:16.999Z,18816.00
2023-03-29T12:07:17.014Z,18505.00
2023-03-29T12:08:17.132Z,18626.00
2023-03-29T12:09:17.038Z,16195.00
2023-03-29T12:10:16.990Z,15853.00
2023-03-29T12:11:17.051Z,19963.00
2023-03-29T12:12:16.932Z,21901.00
2023-03-29T12:13:16.934Z,20484.00
2023-03-29T12:14:16.933Z,16333.00
2023-03-29T12:15:16.926Z,18194.00
2023-03-29T12:16:16.892Z,22126.00
2023-03-29T12:17:16.876Z,19860.00
2023-03-29T12:18:16.898Z,17538.00
2023-03-29T12:19:16.911Z,18346.00
2023-03-29T12:20:16.904Z,18815.00
2023-03-29T12:21:16.831Z,17943.00
2023-03-29T12:22:16.851Z,15330.00
2023-03-29T12:23:16.819Z,14146.00
2023-03-29T12:24:16.862Z,14415.00
2023-03-29T12:25:18.763Z,14998.00
2023-03-29T12:26:16.769Z,13140.00
2023-03-29T12:27:16.766Z,11393.00
2023-03-29T12:28:16.765Z,9635.00
2023-03-29T12:29:16.754Z,8958.00